createdAt,value
2022-08-26T00:01:10.612Z,20.73
2022-08-26T00:03:38.749Z,20.83
2022-08-26T00:06:06.129Z,20.92
2022-08-26T00:08:35.453Z,20.79
2022-08-26T00:11:05.426Z,20.78
2022-08-26T00:13:33.307Z,20.90
2022-08-26T00:16:00.228Z,20.85
2022-08-26T00:18:27.120Z,20.55
2022-08-26T00:20:58.970Z,20.58
2022-08-26T00:23:25.851Z,20.58
2022-08-26T00:25:55.588Z,20.74
2022-08-26T00:28:23.755Z,20.56
2022-08-26T00:30:51.706Z,20.60
2022-08-26T00:33:20.479Z,20.68
2022-08-26T00:35:47.651Z,20.49
2022-08-26T00:38:15.897Z,20.49
2022-08-26T00:40:45.912Z,20.55
2022-08-26T00:43:12.669Z,20.56
2022-08-26T00:45:43.958Z,20.58
2022-08-26T00:48:12.454Z,20.44
2022-08-26T00:50:45.603Z,20.37
2022-08-26T00:53:12.993Z,20.46
2022-08-26T00:55:41.614Z,20.46
2022-08-26T00:58:09.680Z,20.49
2022-08-26T01:00:36.549Z,20.20
2022-08-26T01:03:05.275Z,20.09
2022-08-26T01:05:34.187Z,20.25
2022-08-26T01:08:01.118Z,20.11
2022-08-26T01:10:30.669Z,20.29
2022-08-26T01:13:01.896Z,20.26
2022-08-26T01:15:35.521Z,20.28
2022-08-26T01:18:04.390Z,20.31
2022-08-26T01:20:41.367Z,20.23
2022-08-26T01:23:11.124Z,20.41
2022-08-26T01:25:43.040Z,20.45
2022-08-26T01:28:14.027Z,20.51
2022-08-26T01:30:41.924Z,20.43
2022-08-26T01:33:12.866Z,20.40
2022-08-26T01:35:40.252Z,20.45
2022-08-26T01:38:06.984Z,20.57
2022-08-26T01:40:38.590Z,20.60
2022-08-26T01:43:08.553Z,20.45
2022-08-26T01:45:39.433Z,20.38
2022-08-26T01:48:10.329Z,20.62
2022-08-26T01:50:38.300Z,20.54
2022-08-26T01:53:09.185Z,20.53
2022-08-26T01:55:41.702Z,20.58
2022-08-26T01:58:15.411Z,20.67
2022-08-26T02:00:42.472Z,20.70
2022-08-26T02:03:11.574Z,20.78
2022-08-26T02:05:40.320Z,20.54
2022-08-26T02:08:10.641Z,20.51
2022-08-26T02:10:38.739Z,20.49
2022-08-26T02:13:08.814Z,20.54
2022-08-26T02:15:36.025Z,20.73
2022-08-26T02:18:04.900Z,20.76
2022-08-26T02:20:32.079Z,20.72
2022-08-26T02:22:58.910Z,20.70
2022-08-26T02:25:30.653Z,20.77
2022-08-26T02:27:58.990Z,20.60
2022-08-26T02:30:27.434Z,20.57
2022-08-26T02:32:55.294Z,20.50
2022-08-26T02:35:23.909Z,20.56
2022-08-26T02:37:52.862Z,20.59
2022-08-26T02:40:23.532Z,20.35
2022-08-26T02:42:52.789Z,20.38
2022-08-26T02:45:23.282Z,20.23
2022-08-26T02:47:51.373Z,20.04
2022-08-26T02:50:19.145Z,20.14
2022-08-26T02:52:45.946Z,20.06
2022-08-26T02:55:12.883Z,20.00
2022-08-26T02:57:39.536Z,19.95
2022-08-26T03:00:09.791Z,19.76
2022-08-26T03:02:37.895Z,19.89
2022-08-26T03:05:05.772Z,19.82
2022-08-26T03:07:32.513Z,19.80
2022-08-26T03:09:59.233Z,19.94
2022-08-26T03:12:26.098Z,19.85
2022-08-26T03:14:53.057Z,19.89
2022-08-26T03:17:19.875Z,19.83
2022-08-26T03:19:51.726Z,20.01
2022-08-26T03:22:21.221Z,19.78
2022-08-26T03:24:48.008Z,19.82
2022-08-26T03:27:15.739Z,19.73
2022-08-26T03:29:44.326Z,19.75
2022-08-26T03:32:16.352Z,19.82
2022-08-26T03:34:43.214Z,19.85
2022-08-26T03:37:11.363Z,19.76
2022-08-26T03:39:37.995Z,19.77
2022-08-26T03:42:05.288Z,19.76
2022-08-26T03:44:32.887Z,19.87
2022-08-26T03:46:59.575Z,19.87
2022-08-26T03:49:28.868Z,19.96
2022-08-26T03:51:55.857Z,19.81
2022-08-26T03:54:23.907Z,19.78
2022-08-26T03:56:50.611Z,19.77
2022-08-26T03:59:17.381Z,19.88
2022-08-26T04:01:44.454Z,19.75
2022-08-26T04:04:12.462Z,19.80
2022-08-26T04:06:42.859Z,19.64
2022-08-26T04:09:14.625Z,19.55
2022-08-26T04:11:44.473Z,19.60
2022-08-26T04:14:13.577Z,19.63
2022-08-26T04:16:40.436Z,19.62
2022-08-26T04:19:07.475Z,19.74
2022-08-26T04:21:34.621Z,19.64
2022-08-26T04:24:03.577Z,19.70
2022-08-26T04:26:31.754Z,19.70
2022-08-26T04:29:01.210Z,19.51
2022-08-26T04:31:28.006Z,19.68
2022-08-26T04:33:58.711Z,19.90
2022-08-26T04:36:25.437Z,19.75
2022-08-26T04:38:52.270Z,19.82
2022-08-26T04:41:20.934Z,19.76
2022-08-26T04:43:48.429Z,19.76
2022-08-26T04:46:19.881Z,19.82
2022-08-26T04:48:46.607Z,19.68
2022-08-26T04:51:13.341Z,19.48
2022-08-26T04:53:40.236Z,19.77
2022-08-26T04:56:07.488Z,19.77
2022-08-26T04:58:35.344Z,19.98
2022-08-26T05:01:02.258Z,19.88
2022-08-26T05:03:31.212Z,20.04
2022-08-26T05:05:58.424Z,19.99
2022-08-26T05:08:25.580Z,19.88
2022-08-26T05:10:54.659Z,20.00
2022-08-26T05:13:24.393Z,20.04
2022-08-26T05:15:51.893Z,19.98
2022-08-26T05:18:21.352Z,20.03
2022-08-26T05:20:54.482Z,20.21
2022-08-26T05:23:22.910Z,20.16
2022-08-26T05:25:55.844Z,20.21
2022-08-26T05:28:25.664Z,20.12
2022-08-26T05:30:52.454Z,20.22
2022-08-26T05:33:19.765Z,20.26
2022-08-26T05:35:47.158Z,20.22
2022-08-26T05:38:20.829Z,20.29
2022-08-26T05:40:52.792Z,20.34
2022-08-26T05:43:20.240Z,20.28
2022-08-26T05:45:49.572Z,20.35
2022-08-26T05:48:18.750Z,20.49
2022-08-26T05:50:52.183Z,20.53
2022-08-26T05:53:20.954Z,20.59
2022-08-26T05:55:49.512Z,20.66
2022-08-26T05:58:18.323Z,20.70
2022-08-26T06:00:44.970Z,20.72
2022-08-26T06:03:11.759Z,20.62
2022-08-26T06:05:39.261Z,20.76
2022-08-26T06:08:07.036Z,20.76
2022-08-26T06:10:35.487Z,20.82
2022-08-26T06:13:11.479Z,20.94
2022-08-26T06:15:43.487Z,21.09
2022-08-26T06:18:12.241Z,21.11
2022-08-26T06:20:38.930Z,21.14
2022-08-26T06:23:06.131Z,21.21
2022-08-26T06:25:37.468Z,21.27
2022-08-26T06:28:06.725Z,21.38
2022-08-26T06:30:33.630Z,21.50
2022-08-26T06:33:01.419Z,21.57
2022-08-26T06:35:28.546Z,21.63
2022-08-26T06:37:55.510Z,21.73
2022-08-26T06:40:22.508Z,21.80
2022-08-26T06:42:49.544Z,21.91
2022-08-26T06:45:17.795Z,22.03
2022-08-26T06:47:44.606Z,22.05
2022-08-26T06:50:17.506Z,22.19
2022-08-26T06:52:44.955Z,22.25
2022-08-26T06:55:11.884Z,22.33
2022-08-26T06:57:39.725Z,22.45
2022-08-26T07:00:10.435Z,22.56
2022-08-26T07:02:39.324Z,22.62
2022-08-26T07:05:07.413Z,22.71
2022-08-26T07:07:35.089Z,22.82
2022-08-26T07:10:04.467Z,23.01
2022-08-26T07:12:36.157Z,23.03
2022-08-26T07:15:03.149Z,23.00
2022-08-26T07:17:30.015Z,23.10
2022-08-26T07:19:58.673Z,23.25
2022-08-26T07:22:26.174Z,23.30
2022-08-26T07:24:52.887Z,23.38
2022-08-26T07:27:19.798Z,23.50
2022-08-26T07:29:47.708Z,23.63
2022-08-26T07:32:16.795Z,23.68
2022-08-26T07:34:45.345Z,23.84
2022-08-26T07:37:13.507Z,23.85
2022-08-26T07:39:41.046Z,23.89
2022-08-26T07:42:10.010Z,23.86
2022-08-26T07:44:37.414Z,23.96
2022-08-26T07:47:10.504Z,23.96
2022-08-26T07:49:52.762Z,24.07
2022-08-26T07:52:25.541Z,24.30
2022-08-26T07:54:53.264Z,24.23
2022-08-26T07:57:19.971Z,24.20
2022-08-26T07:59:47.687Z,24.13
2022-08-26T08:02:14.436Z,24.17
2022-08-26T08:04:41.411Z,24.26
2022-08-26T08:07:11.531Z,24.29
2022-08-26T08:09:40.756Z,24.52
2022-08-26T08:12:08.221Z,24.40
2022-08-26T08:14:40.998Z,24.53
2022-08-26T08:17:08.691Z,24.60
2022-08-26T08:19:36.867Z,24.58
2022-08-26T08:22:13.325Z,24.69
2022-08-26T08:24:45.736Z,24.78
2022-08-26T08:27:18.134Z,24.93
2022-08-26T08:29:48.174Z,24.97
2022-08-26T08:32:15.642Z,25.05
2022-08-26T08:37:15.810Z,25.03
2022-08-26T08:39:42.806Z,25.19
2022-08-26T08:42:33.021Z,25.39
2022-08-26T08:45:05.073Z,25.34
2022-08-26T08:47:36.361Z,25.38
2022-08-26T08:50:11.557Z,25.48
2022-08-26T08:52:41.269Z,25.56
2022-08-26T08:55:11.858Z,25.57
2022-08-26T08:57:55.830Z,25.42
2022-08-26T09:00:39.667Z,25.38
2022-08-26T09:03:17.037Z,25.58
2022-08-26T09:05:48.710Z,25.80
2022-08-26T09:08:19.876Z,25.77
2022-08-26T09:10:51.706Z,25.73
2022-08-26T09:13:25.293Z,25.63
2022-08-26T09:16:03.433Z,25.80
2022-08-26T09:18:47.596Z,26.05
2022-08-26T09:21:16.762Z,25.90
2022-08-26T09:23:49.343Z,25.96
2022-08-26T09:26:20.227Z,26.26
2022-08-26T09:28:54.704Z,26.16
2022-08-26T09:31:24.457Z,26.11
2022-08-26T09:34:06.442Z,26.17
2022-08-26T09:36:41.039Z,26.18
2022-08-26T09:39:26.665Z,26.54
2022-08-26T09:42:07.473Z,26.59
2022-08-26T09:44:51.488Z,26.73
2022-08-26T09:47:23.240Z,26.72
2022-08-26T09:49:58.944Z,26.79
2022-08-26T09:52:25.700Z,26.81
2022-08-26T09:55:03.544Z,26.79
2022-08-26T09:57:32.527Z,26.93
2022-08-26T10:00:01.057Z,26.97
2022-08-26T10:02:38.306Z,27.03
2022-08-26T10:05:09.926Z,27.02
2022-08-26T10:07:41.062Z,27.17
2022-08-26T10:10:13.378Z,27.23
2022-08-26T10:12:49.344Z,27.45
2022-08-26T10:15:19.071Z,27.64
2022-08-26T10:17:55.401Z,27.37
2022-08-26T10:20:26.418Z,27.30
2022-08-26T10:22:59.332Z,27.38
2022-08-26T10:25:31.623Z,27.40
2022-08-26T10:28:05.884Z,27.53
2022-08-26T10:30:40.515Z,27.55
2022-08-26T10:33:12.072Z,27.58
2022-08-26T10:35:52.523Z,27.61
2022-08-26T10:38:24.099Z,27.48
2022-08-26T10:40:58.923Z,27.31
2022-08-26T10:43:30.617Z,27.29
2022-08-26T10:46:03.058Z,27.51
2022-08-26T10:48:38.933Z,27.42
2022-08-26T10:51:06.605Z,27.92
2022-08-26T10:53:45.656Z,28.19
2022-08-26T10:56:24.765Z,28.28
2022-08-26T10:59:01.154Z,28.20
2022-08-26T11:01:34.527Z,28.57
2022-08-26T11:04:16.806Z,28.32
2022-08-26T11:06:43.734Z,28.47
2022-08-26T11:09:10.415Z,28.47
2022-08-26T11:11:49.221Z,28.52
2022-08-26T11:14:42.061Z,28.68
2022-08-26T11:18:00.279Z,28.72
2022-08-26T11:20:41.526Z,28.88
2022-08-26T11:23:38.008Z,28.98
2022-08-26T11:26:20.410Z,29.09
2022-08-26T11:29:03.274Z,28.97
2022-08-26T11:31:53.016Z,29.19
2022-08-26T11:34:56.371Z,29.56
2022-08-26T11:37:32.421Z,29.34
2022-08-26T11:40:01.364Z,29.29
2022-08-26T11:42:36.407Z,29.50
2022-08-26T11:45:18.065Z,29.47
2022-08-26T11:47:45.311Z,29.55
2022-08-26T11:50:17.281Z,29.65
2022-08-26T11:52:52.754Z,29.55
2022-08-26T11:55:20.638Z,29.76
2022-08-26T11:57:53.408Z,29.54
2022-08-26T12:00:33.308Z,29.71
2022-08-26T12:03:05.128Z,29.85
2022-08-26T12:05:38.278Z,29.49
2022-08-26T12:08:09.887Z,29.56
2022-08-26T12:10:37.247Z,29.73
2022-08-26T12:13:05.576Z,29.81
2022-08-26T12:15:33.917Z,29.88
2022-08-26T12:18:20.688Z,30.05
2022-08-26T12:20:59.881Z,29.99
2022-08-26T12:23:36.414Z,29.90
2022-08-26T12:26:08.186Z,30.11
2022-08-26T12:28:43.760Z,29.98
2022-08-26T12:31:10.707Z,30.03
2022-08-26T12:33:37.854Z,30.08
2022-08-26T12:36:06.477Z,29.85
2022-08-26T12:38:35.882Z,30.25
2022-08-26T12:41:02.663Z,30.40
2022-08-26T12:43:43.387Z,30.44
2022-08-26T12:46:12.591Z,30.47
2022-08-26T12:48:42.483Z,30.56
2022-08-26T12:51:24.234Z,30.81
2022-08-26T12:53:51.918Z,30.57
2022-08-26T12:56:25.126Z,30.31
2022-08-26T12:59:19.389Z,30.03
2022-08-26T13:01:46.493Z,30.04
2022-08-26T13:04:34.104Z,30.32
2022-08-26T13:07:22.598Z,30.61
2022-08-26T13:09:50.483Z,30.78
2022-08-26T13:12:25.113Z,30.74
2022-08-26T13:14:51.889Z,30.57
2022-08-26T13:17:18.656Z,30.62
2022-08-26T13:19:45.502Z,30.60
2022-08-26T13:22:13.493Z,30.52
2022-08-26T13:24:43.325Z,30.72
2022-08-26T13:27:13.015Z,30.90
2022-08-26T13:29:40.381Z,31.00
2022-08-26T13:32:08.790Z,31.08
2022-08-26T13:34:38.063Z,30.76
2022-08-26T13:37:05.007Z,31.03
2022-08-26T13:39:51.272Z,31.06
2022-08-26T13:42:17.949Z,31.16
2022-08-26T13:44:44.935Z,31.12
2022-08-26T13:47:11.699Z,31.30
2022-08-26T13:49:38.472Z,31.45
2022-08-26T13:52:05.218Z,31.37
2022-08-26T13:54:31.987Z,31.38
2022-08-26T13:57:00.106Z,31.30
2022-08-26T13:59:26.805Z,31.46
2022-08-26T14:01:53.807Z,31.40
2022-08-26T14:04:27.194Z,31.22
2022-08-26T14:06:54.248Z,31.01
2022-08-26T14:09:20.998Z,31.08
2022-08-26T14:11:54.024Z,31.25
2022-08-26T14:14:23.366Z,31.43
2022-08-26T14:16:58.938Z,31.43
2022-08-26T14:19:26.794Z,31.49
2022-08-26T14:21:53.544Z,31.53
2022-08-26T14:24:20.409Z,31.68
2022-08-26T14:26:47.237Z,31.58
2022-08-26T14:29:16.197Z,31.52
2022-08-26T14:31:45.073Z,31.44
2022-08-26T14:34:13.800Z,31.89
2022-08-26T14:36:40.728Z,31.78
2022-08-26T14:39:10.777Z,31.73
2022-08-26T14:41:44.463Z,31.96
2022-08-26T14:44:15.091Z,31.68
2022-08-26T14:46:46.131Z,31.49
2022-08-26T14:49:15.738Z,31.51
2022-08-26T14:51:44.091Z,31.53
2022-08-26T14:54:17.872Z,31.47
2022-08-26T14:56:56.662Z,31.53
2022-08-26T14:59:28.402Z,31.65
2022-08-26T15:02:37.805Z,31.32
2022-08-26T15:05:05.707Z,31.84
2022-08-26T15:07:46.173Z,31.77
2022-08-26T15:10:15.425Z,31.58
2022-08-26T15:12:45.827Z,31.66
2022-08-26T15:15:14.601Z,31.58
2022-08-26T15:17:42.689Z,31.63
2022-08-26T15:20:12.323Z,31.59
2022-08-26T15:22:43.015Z,31.40
2022-08-26T15:25:10.789Z,31.29
2022-08-26T15:27:38.235Z,31.39
2022-08-26T15:30:07.976Z,31.37
2022-08-26T15:32:35.320Z,31.59
2022-08-26T15:35:08.680Z,31.50
2022-08-26T15:37:36.187Z,31.32
2022-08-26T15:40:04.433Z,31.43
2022-08-26T15:42:31.259Z,31.52
2022-08-26T15:45:00.365Z,31.49
2022-08-26T15:47:27.135Z,31.64
2022-08-26T15:49:59.296Z,31.71
2022-08-26T15:52:37.683Z,31.67
2022-08-26T15:55:08.694Z,31.45
2022-08-26T15:57:35.484Z,31.42
2022-08-26T16:00:04.736Z,31.41
2022-08-26T16:02:32.429Z,31.34
2022-08-26T16:04:59.397Z,31.16
2022-08-26T16:07:26.628Z,31.02
2022-08-26T16:09:54.716Z,31.00
2022-08-26T16:12:22.485Z,30.81
2022-08-26T16:14:49.230Z,30.82
2022-08-26T16:17:21.557Z,30.57
2022-08-26T16:19:47.996Z,30.70
2022-08-26T16:22:14.793Z,30.60
2022-08-26T16:24:41.636Z,30.52
2022-08-26T16:27:09.823Z,30.49
2022-08-26T16:29:37.948Z,30.32
2022-08-26T16:32:04.887Z,30.37
2022-08-26T16:34:34.621Z,30.30
2022-08-26T16:37:03.194Z,30.26
2022-08-26T16:39:34.413Z,30.20
2022-08-26T16:45:13.923Z,29.97
2022-08-26T16:47:42.463Z,29.98
2022-08-26T16:50:13.862Z,29.84
2022-08-26T16:52:45.634Z,29.60
2022-08-26T16:55:24.483Z,29.72
2022-08-26T16:58:04.135Z,29.64
2022-08-26T17:00:38.514Z,29.54
2022-08-26T17:03:14.523Z,29.41
2022-08-26T17:05:51.652Z,29.47
2022-08-26T17:08:28.690Z,29.14
2022-08-26T17:11:00.465Z,29.28
2022-08-26T17:13:35.125Z,29.11
2022-08-26T17:16:08.999Z,28.92
2022-08-26T17:18:37.900Z,29.06
2022-08-26T17:21:10.802Z,29.07
2022-08-26T17:23:43.634Z,28.85
2022-08-26T17:26:21.686Z,28.53
2022-08-26T17:28:52.203Z,28.40
2022-08-26T17:31:23.891Z,28.31
2022-08-26T17:33:54.375Z,28.38
2022-08-26T17:36:22.150Z,28.15
2022-08-26T17:38:49.290Z,28.01
2022-08-26T17:41:22.205Z,28.12
2022-08-26T17:43:55.058Z,27.95
2022-08-26T17:46:23.987Z,27.80
2022-08-26T17:48:52.723Z,27.97
2022-08-26T17:51:20.207Z,27.97
2022-08-26T17:53:47.760Z,27.87
2022-08-26T17:56:16.897Z,27.71
2022-08-26T17:58:51.096Z,27.48
2022-08-26T18:01:19.732Z,27.50
2022-08-26T18:03:48.497Z,27.54
2022-08-26T18:06:15.278Z,27.28
2022-08-26T18:08:42.354Z,27.03
2022-08-26T18:11:17.888Z,27.05
2022-08-26T18:13:47.841Z,27.07
2022-08-26T18:16:15.625Z,27.21
2022-08-26T18:18:51.470Z,26.80
2022-08-26T18:21:20.354Z,26.83
2022-08-26T18:23:57.663Z,26.94
2022-08-26T18:26:31.684Z,26.72
2022-08-26T18:29:07.890Z,26.66
2022-08-26T18:31:44.556Z,26.75
2022-08-26T18:34:21.787Z,26.51
2022-08-26T18:36:57.322Z,26.46
2022-08-26T18:39:24.600Z,26.38
2022-08-26T18:41:53.472Z,26.35
2022-08-26T18:44:21.212Z,26.28
2022-08-26T18:46:48.247Z,26.22
2022-08-26T18:49:18.357Z,26.31
2022-08-26T18:51:45.793Z,26.32
2022-08-26T18:54:13.079Z,26.42
2022-08-26T18:56:42.453Z,26.25
2022-08-26T18:59:11.545Z,26.01
2022-08-26T19:01:41.019Z,26.00
2022-08-26T19:04:09.769Z,26.06
2022-08-26T19:06:46.861Z,26.07
2022-08-26T19:09:14.742Z,25.87
2022-08-26T19:11:45.504Z,25.80
2022-08-26T19:14:15.899Z,25.72
2022-08-26T19:16:45.259Z,25.86
2022-08-26T19:19:12.569Z,25.89
2022-08-26T19:21:39.840Z,25.92
2022-08-26T19:24:11.538Z,25.65
2022-08-26T19:26:41.959Z,25.49
2022-08-26T19:29:09.958Z,25.54
2022-08-26T19:31:36.933Z,25.34
2022-08-26T19:34:07.339Z,25.49
2022-08-26T19:36:34.566Z,25.53
2022-08-26T19:39:01.862Z,25.42
2022-08-26T19:41:36.565Z,25.39
2022-08-26T19:44:07.303Z,25.06
2022-08-26T19:46:34.542Z,25.08
2022-08-26T19:49:01.546Z,25.13
2022-08-26T19:51:31.643Z,25.06
2022-08-26T19:54:00.208Z,24.98
2022-08-26T19:56:31.458Z,24.71
2022-08-26T19:58:58.179Z,24.85
2022-08-26T20:01:25.614Z,24.76
2022-08-26T20:03:52.511Z,24.81
2022-08-26T20:06:19.739Z,24.42
2022-08-26T20:08:50.831Z,24.69
2022-08-26T20:11:20.632Z,24.61
2022-08-26T20:13:48.870Z,24.66
2022-08-26T20:16:16.657Z,24.64
2022-08-26T20:18:44.789Z,24.69
2022-08-26T20:21:12.184Z,24.76
2022-08-26T20:23:39.099Z,24.57
2022-08-26T20:26:06.965Z,24.50
2022-08-26T20:28:33.748Z,24.67
2022-08-26T20:31:02.642Z,24.44
2022-08-26T20:33:29.641Z,24.63
2022-08-26T20:36:11.149Z,24.45
2022-08-26T20:38:37.894Z,24.61
2022-08-26T20:41:04.781Z,24.60
2022-08-26T20:43:31.596Z,24.66
2022-08-26T20:45:58.505Z,24.62
2022-08-26T20:48:26.835Z,24.63
2022-08-26T20:50:58.241Z,24.55
2022-08-26T20:53:25.794Z,24.46
2022-08-26T20:55:52.835Z,24.45
2022-08-26T20:58:19.833Z,24.33
2022-08-26T21:00:46.534Z,24.32
2022-08-26T21:03:13.392Z,24.05
2022-08-26T21:05:41.988Z,24.20
2022-08-26T21:08:09.099Z,24.14
2022-08-26T21:10:38.326Z,24.20
2022-08-26T21:13:06.067Z,23.99
2022-08-26T21:15:34.847Z,23.98
2022-08-26T21:18:01.633Z,24.16
2022-08-26T21:20:28.531Z,23.98
2022-08-26T21:22:56.925Z,24.08
2022-08-26T21:25:23.643Z,24.10
2022-08-26T21:27:50.425Z,24.10
2022-08-26T21:30:17.337Z,24.04
2022-08-26T21:32:44.091Z,24.04
2022-08-26T21:35:10.986Z,23.90
2022-08-26T21:37:37.728Z,24.13
2022-08-26T21:40:09.806Z,24.05
2022-08-26T21:42:36.603Z,23.78
2022-08-26T21:45:04.385Z,23.69
2022-08-26T21:47:31.099Z,23.65
2022-08-26T21:49:58.094Z,23.68
2022-08-26T21:52:25.028Z,23.54
2022-08-26T21:54:56.930Z,23.57
2022-08-26T21:57:26.026Z,23.56
2022-08-26T21:59:52.752Z,23.69
2022-08-26T22:02:20.483Z,23.57
2022-08-26T22:04:49.009Z,23.48
2022-08-26T22:07:16.585Z,23.41
2022-08-26T22:09:44.506Z,23.59
2022-08-26T22:12:12.372Z,23.55
2022-08-26T22:14:40.468Z,23.40
2022-08-26T22:17:07.253Z,23.23
2022-08-26T22:19:34.161Z,23.38
2022-08-26T22:22:12.760Z,23.22
2022-08-26T22:24:39.742Z,23.45
2022-08-26T22:27:06.665Z,23.42
2022-08-26T22:29:33.512Z,23.30
2022-08-26T22:32:01.914Z,23.32
2022-08-26T22:34:28.620Z,23.31
2022-08-26T22:36:55.449Z,23.44
2022-08-26T22:39:25.398Z,23.49
2022-08-26T22:41:53.402Z,23.46
2022-08-26T22:44:21.044Z,23.55
2022-08-26T22:46:49.046Z,23.39
2022-08-26T22:49:17.644Z,23.43
2022-08-26T22:51:45.692Z,23.51
2022-08-26T22:54:12.587Z,23.45
2022-08-26T22:56:39.678Z,23.28
2022-08-26T22:59:07.329Z,23.27
2022-08-26T23:01:36.076Z,23.13
2022-08-26T23:04:03.879Z,23.03
2022-08-26T23:06:32.068Z,22.77
2022-08-26T23:08:58.870Z,22.88
2022-08-26T23:11:25.618Z,22.72
2022-08-26T23:13:52.405Z,22.64
2022-08-26T23:16:19.272Z,22.49
2022-08-26T23:18:45.949Z,22.47
2022-08-26T23:21:12.806Z,22.44
2022-08-26T23:23:41.020Z,22.30
2022-08-26T23:26:08.552Z,22.31
2022-08-26T23:28:36.215Z,22.08
2022-08-26T23:31:04.020Z,22.22
2022-08-26T23:33:30.795Z,22.02
2022-08-26T23:35:57.556Z,22.02
2022-08-26T23:38:24.331Z,21.95
2022-08-26T23:40:52.530Z,21.88
2022-08-26T23:43:19.240Z,21.92
2022-08-26T23:45:45.919Z,22.16
2022-08-26T23:48:12.719Z,22.17
2022-08-26T23:50:39.443Z,22.07
2022-08-26T23:53:06.109Z,21.90
2022-08-26T23:55:34.905Z,21.76
2022-08-26T23:58:03.284Z,21.95
